createdAt,value
2022-10-16T00:00:01.203Z,10.56
2022-10-16T00:01:01.189Z,10.56
2022-10-16T00:02:01.268Z,10.56
2022-10-16T00:03:01.193Z,10.56
2022-10-16T00:04:01.183Z,10.22
2022-10-16T00:05:01.187Z,10.56
2022-10-16T00:06:01.205Z,10.56
2022-10-16T00:07:01.182Z,10.56
2022-10-16T00:08:01.189Z,10.56
2022-10-16T00:09:01.190Z,10.56
2022-10-16T00:10:01.194Z,10.67
2022-10-16T00:11:01.186Z,10.67
2022-10-16T00:12:01.196Z,10.67
2022-10-16T00:13:01.186Z,10.67
2022-10-16T00:14:01.187Z,10.56
2022-10-16T00:15:01.183Z,10.67
2022-10-16T00:16:01.222Z,10.83
2022-10-16T00:17:01.187Z,10.67
2022-10-16T00:18:01.186Z,10.83
2022-10-16T00:19:01.191Z,11
2022-10-16T00:20:01.181Z,10.83
2022-10-16T00:21:01.190Z,10.83
2022-10-16T00:22:01.196Z,11.11
2022-10-16T00:23:01.174Z,11.11
2022-10-16T00:24:01.208Z,11.28
2022-10-16T00:25:01.190Z,11.11
2022-10-16T00:26:01.186Z,11.28
2022-10-16T00:27:01.186Z,11.11
2022-10-16T00:28:01.189Z,11.28
2022-10-16T00:29:01.227Z,11.28
2022-10-16T00:30:01.204Z,11
2022-10-16T00:31:01.199Z,11.44
2022-10-16T00:32:01.236Z,11.11
2022-10-16T00:33:01.191Z,10.83
2022-10-16T00:34:01.198Z,11.44
2022-10-16T00:35:01.194Z,11.28
2022-10-16T00:36:01.189Z,11.11
2022-10-16T00:37:01.191Z,11.28
2022-10-16T00:38:01.195Z,11.28
2022-10-16T00:40:01.196Z,11.44
2022-10-16T00:41:01.196Z,11.44
2022-10-16T00:42:01.205Z,11.11
2022-10-16T00:43:01.191Z,11.28
2022-10-16T00:44:01.204Z,11.28
2022-10-16T00:45:01.200Z,11.28
2022-10-16T00:46:01.189Z,11.11
2022-10-16T00:47:01.193Z,11.28
2022-10-16T00:48:01.284Z,11.44
2022-10-16T00:49:01.198Z,11.28
2022-10-16T00:50:01.188Z,11.44
2022-10-16T00:51:01.199Z,11.28
2022-10-16T00:52:01.193Z,11.28
2022-10-16T00:53:01.192Z,11.44
2022-10-16T00:54:01.196Z,11.44
2022-10-16T00:55:01.190Z,11.44
2022-10-16T00:56:01.195Z,11.44
2022-10-16T00:57:01.257Z,11
2022-10-16T00:58:01.199Z,11
2022-10-16T00:59:01.199Z,11
2022-10-16T01:00:01.193Z,11
2022-10-16T01:01:01.272Z,11.28
2022-10-16T01:02:01.195Z,11
2022-10-16T01:03:01.190Z,10.67
2022-10-16T01:04:01.217Z,11.11
2022-10-16T01:05:01.197Z,11.44
2022-10-16T01:06:01.196Z,11.28
2022-10-16T01:07:01.189Z,11.28
2022-10-16T01:08:01.196Z,11.44
2022-10-16T01:09:01.187Z,11
2022-10-16T01:10:01.196Z,11.44
2022-10-16T01:11:01.196Z,11.44
2022-10-16T01:12:01.194Z,11.44
2022-10-16T01:13:01.197Z,11.44
2022-10-16T01:14:01.200Z,11.28
2022-10-16T01:15:01.192Z,11.44
2022-10-16T01:16:01.217Z,11.28
2022-10-16T01:17:01.195Z,11.44
2022-10-16T01:18:01.198Z,11.28
2022-10-16T01:19:01.196Z,11.44
2022-10-16T01:20:01.216Z,11.44
2022-10-16T01:21:01.189Z,11.28
2022-10-16T01:22:01.194Z,11.44
2022-10-16T01:23:01.200Z,11.44
2022-10-16T01:24:01.194Z,11.44
2022-10-16T01:25:01.195Z,11.44
2022-10-16T01:26:01.193Z,11.28
2022-10-16T01:27:01.195Z,11.44
2022-10-16T01:28:01.204Z,11.44
2022-10-16T01:29:01.234Z,11.11
2022-10-16T01:30:01.198Z,11.28
2022-10-16T01:31:01.196Z,11.28
2022-10-16T01:32:01.197Z,11.28
2022-10-16T01:33:01.196Z,11.28
2022-10-16T01:34:01.204Z,11.28
2022-10-16T01:35:01.203Z,11.11
2022-10-16T01:36:01.215Z,11.44
2022-10-16T01:37:01.199Z,11.44
2022-10-16T01:38:01.199Z,11.28
2022-10-16T01:39:01.198Z,11
2022-10-16T01:40:01.197Z,11.44
2022-10-16T01:41:01.194Z,11.44
2022-10-16T01:42:01.198Z,11.44
2022-10-16T01:43:01.213Z,11.28
2022-10-16T01:44:01.206Z,11.28
2022-10-16T01:45:01.202Z,11
2022-10-16T01:46:01.202Z,11.28
2022-10-16T01:47:01.192Z,11.44
2022-10-16T01:48:01.200Z,11.28
2022-10-16T01:49:01.203Z,11.44
2022-10-16T01:50:01.199Z,11
2022-10-16T01:51:01.194Z,11.44
2022-10-16T01:53:01.192Z,11.44
2022-10-16T01:54:01.195Z,11.61
2022-10-16T01:55:01.199Z,11.44
2022-10-16T01:56:01.201Z,11.44
2022-10-16T01:57:01.191Z,11.44
2022-10-16T01:58:01.210Z,11.28
2022-10-16T01:59:01.197Z,11.44
2022-10-16T02:00:01.210Z,11.28
2022-10-16T02:01:01.248Z,11.11
2022-10-16T02:02:01.197Z,11.28
2022-10-16T02:03:01.202Z,11.28
2022-10-16T02:04:01.196Z,11.11
2022-10-16T02:05:01.195Z,11.11
2022-10-16T02:06:01.197Z,10.83
2022-10-16T02:07:01.197Z,11.28
2022-10-16T02:08:03.085Z,11.28
2022-10-16T02:09:01.199Z,11
2022-10-16T02:10:01.201Z,11.11
2022-10-16T02:11:01.201Z,11.11
2022-10-16T02:12:01.203Z,11.11
2022-10-16T02:13:01.203Z,11.28
2022-10-16T02:14:01.201Z,11
2022-10-16T02:15:01.203Z,11.28
2022-10-16T02:16:01.205Z,10.83
2022-10-16T02:17:01.195Z,11.11
2022-10-16T02:18:01.213Z,10.83
2022-10-16T02:19:01.202Z,11
2022-10-16T02:20:01.207Z,11.11
2022-10-16T02:21:01.201Z,11.28
2022-10-16T02:22:01.199Z,11
2022-10-16T02:23:01.202Z,11
2022-10-16T02:24:01.232Z,11
2022-10-16T02:25:01.205Z,10.67
2022-10-16T02:26:01.206Z,11.28
2022-10-16T02:27:01.201Z,11
2022-10-16T02:28:01.204Z,11
2022-10-16T02:29:01.210Z,10.83
2022-10-16T02:30:01.212Z,10.67
2022-10-16T02:31:01.195Z,11.11
2022-10-16T02:32:01.206Z,11
2022-10-16T02:33:01.200Z,11.11
2022-10-16T02:34:01.242Z,11.44
2022-10-16T02:35:01.205Z,11.28
2022-10-16T02:36:01.209Z,11.28
2022-10-16T02:37:01.202Z,11.28
2022-10-16T02:38:01.259Z,11
2022-10-16T02:39:01.204Z,11.28
2022-10-16T02:40:01.231Z,11.28
2022-10-16T02:41:01.199Z,11.44
2022-10-16T02:42:01.211Z,11.44
2022-10-16T02:43:01.198Z,11.28
2022-10-16T02:44:01.205Z,11.44
2022-10-16T02:45:01.206Z,11.28
2022-10-16T02:46:01.196Z,11.28
2022-10-16T02:47:01.234Z,11.11
2022-10-16T02:48:01.199Z,11.28
2022-10-16T02:49:01.209Z,10.83
2022-10-16T02:50:01.203Z,11.28
2022-10-16T02:51:01.203Z,11.44
2022-10-16T02:52:01.203Z,11.28
2022-10-16T02:53:01.203Z,11.28
2022-10-16T02:54:01.208Z,10.83
2022-10-16T02:55:01.206Z,11.28
2022-10-16T02:56:01.229Z,11.44
2022-10-16T02:57:01.205Z,11.44
2022-10-16T02:58:01.210Z,11.11
2022-10-16T02:59:01.213Z,11.11
2022-10-16T03:00:01.211Z,11.11
2022-10-16T03:01:01.233Z,11.11
2022-10-16T03:02:01.209Z,11.28
2022-10-16T03:03:01.208Z,11.11
2022-10-16T03:04:01.215Z,11.11
2022-10-16T03:05:01.205Z,10.83
2022-10-16T03:06:01.218Z,11.28
2022-10-16T03:07:01.207Z,11.44
2022-10-16T03:08:01.210Z,11.28
2022-10-16T03:09:01.207Z,11.11
2022-10-16T03:10:01.220Z,11.11
2022-10-16T03:11:01.207Z,11.44
2022-10-16T03:12:01.228Z,11.11
2022-10-16T03:13:01.207Z,10.83
2022-10-16T03:14:01.194Z,11.11
2022-10-16T03:15:01.215Z,11
2022-10-16T03:16:01.214Z,10.67
2022-10-16T03:17:01.203Z,11.11
2022-10-16T03:18:01.206Z,11.28
2022-10-16T03:19:01.206Z,11
2022-10-16T03:20:01.202Z,11
2022-10-16T03:21:01.211Z,11.28
2022-10-16T03:22:01.207Z,11.11
2022-10-16T03:23:01.211Z,11.11
2022-10-16T03:24:01.217Z,11.11
2022-10-16T03:25:01.214Z,11
2022-10-16T03:26:01.201Z,11
2022-10-16T03:27:01.208Z,11
2022-10-16T03:28:01.233Z,11.11
2022-10-16T03:29:01.249Z,11
2022-10-16T03:30:01.209Z,11
2022-10-16T03:31:01.212Z,10.83
2022-10-16T03:32:01.212Z,11.11
2022-10-16T03:33:01.206Z,11.11
2022-10-16T03:34:01.212Z,11
2022-10-16T03:35:01.211Z,11
2022-10-16T03:36:01.202Z,11
2022-10-16T03:37:01.204Z,10.83
2022-10-16T03:38:01.212Z,10.83
2022-10-16T03:39:01.199Z,10.83
2022-10-16T03:40:01.203Z,11
2022-10-16T03:41:01.204Z,10.67
2022-10-16T03:42:01.205Z,11
2022-10-16T03:43:01.283Z,11
2022-10-16T03:44:01.226Z,11.11
2022-10-16T03:45:01.206Z,11
2022-10-16T03:46:01.202Z,11.11
2022-10-16T03:47:01.221Z,10.67
2022-10-16T03:48:01.208Z,11.11
2022-10-16T03:49:02.276Z,11
2022-10-16T03:50:01.208Z,11
2022-10-16T03:51:01.196Z,10.83
2022-10-16T03:52:01.201Z,11
2022-10-16T03:53:01.205Z,10.83
2022-10-16T03:54:01.205Z,11
2022-10-16T03:55:01.210Z,11
2022-10-16T03:56:01.205Z,10.67
2022-10-16T03:57:01.205Z,10.83
2022-10-16T03:58:01.203Z,10.83
2022-10-16T03:59:01.203Z,11
2022-10-16T04:00:01.225Z,11
2022-10-16T04:01:01.225Z,11
2022-10-16T04:02:01.203Z,11
2022-10-16T04:03:01.200Z,11
2022-10-16T04:04:01.206Z,11
2022-10-16T04:05:01.216Z,11
2022-10-16T04:06:01.208Z,10.83
2022-10-16T04:07:01.212Z,10.83
2022-10-16T04:08:01.211Z,11
2022-10-16T04:09:01.212Z,10.83
2022-10-16T04:10:01.214Z,10.83
2022-10-16T04:11:01.213Z,11
2022-10-16T04:12:01.219Z,11
2022-10-16T04:13:01.212Z,10.67
2022-10-16T04:14:01.215Z,11
2022-10-16T04:15:01.208Z,11
2022-10-16T04:16:01.250Z,10.83
2022-10-16T04:17:01.208Z,11
2022-10-16T04:18:01.217Z,10.83
2022-10-16T04:19:01.212Z,11
2022-10-16T04:20:01.206Z,10.83
2022-10-16T04:21:01.205Z,10.67
2022-10-16T04:22:01.219Z,11.11
2022-10-16T04:23:01.215Z,10.83
2022-10-16T04:24:01.222Z,11
2022-10-16T04:25:01.215Z,11
2022-10-16T04:26:01.210Z,11
2022-10-16T04:27:01.224Z,11
2022-10-16T04:28:01.218Z,11
2022-10-16T04:29:01.278Z,11
2022-10-16T04:30:01.218Z,11
2022-10-16T04:31:01.216Z,11
2022-10-16T04:32:01.237Z,11
2022-10-16T04:34:01.204Z,10.83
2022-10-16T04:35:01.217Z,11
2022-10-16T04:36:01.218Z,10.56
2022-10-16T04:37:01.218Z,10.83
2022-10-16T04:38:01.212Z,10.83
2022-10-16T04:39:01.214Z,11
2022-10-16T04:40:01.215Z,11
2022-10-16T04:41:01.211Z,11
2022-10-16T04:42:01.208Z,10.67
2022-10-16T04:43:01.220Z,10.67
2022-10-16T04:44:01.212Z,10.67
2022-10-16T04:45:01.220Z,11
2022-10-16T04:46:01.217Z,10.83
2022-10-16T04:47:01.223Z,10.83
2022-10-16T04:48:01.251Z,11
2022-10-16T04:49:01.225Z,11
2022-10-16T04:50:01.210Z,10.56
2022-10-16T04:51:01.210Z,11
2022-10-16T04:52:01.209Z,11
2022-10-16T04:53:01.209Z,10.83
2022-10-16T04:54:01.223Z,11
2022-10-16T04:55:01.214Z,10.83
2022-10-16T04:56:01.211Z,11
2022-10-16T04:57:01.208Z,11
2022-10-16T04:58:01.217Z,10.56
2022-10-16T04:59:01.222Z,11
2022-10-16T05:00:01.218Z,11
2022-10-16T05:01:01.222Z,11
2022-10-16T05:02:01.216Z,11
2022-10-16T05:03:01.245Z,11
2022-10-16T05:04:01.243Z,10.83
2022-10-16T05:05:01.211Z,11
2022-10-16T05:06:01.215Z,11
2022-10-16T05:07:01.210Z,10.83
2022-10-16T05:08:01.212Z,10.83
2022-10-16T05:09:01.213Z,10.83
2022-10-16T05:10:01.221Z,10.83
2022-10-16T05:11:01.215Z,11
2022-10-16T05:12:01.221Z,10.83
2022-10-16T05:13:01.217Z,10.83
2022-10-16T05:14:01.283Z,10.56
2022-10-16T05:15:01.217Z,10.67
2022-10-16T05:16:01.216Z,10.56
2022-10-16T05:17:01.215Z,11
2022-10-16T05:18:01.227Z,11
2022-10-16T05:20:01.241Z,10.67
2022-10-16T05:21:01.219Z,10.83
2022-10-16T05:22:01.218Z,10.83
2022-10-16T05:23:01.305Z,11
2022-10-16T05:24:01.219Z,10.83
2022-10-16T05:25:01.224Z,10.67
2022-10-16T05:26:01.213Z,10.67
2022-10-16T05:27:01.218Z,10.67
2022-10-16T05:28:01.207Z,10.83
2022-10-16T05:29:01.255Z,11
2022-10-16T05:30:01.212Z,10.67
2022-10-16T05:31:01.217Z,10.83
2022-10-16T05:32:01.217Z,10.67
2022-10-16T05:33:01.215Z,10.67
2022-10-16T05:34:01.235Z,10.83
2022-10-16T05:35:01.230Z,11
2022-10-16T05:36:01.244Z,10.67
2022-10-16T05:37:01.222Z,10.56
2022-10-16T05:38:01.217Z,10.67
2022-10-16T05:39:01.220Z,10.67
2022-10-16T05:40:01.228Z,10.56
2022-10-16T05:41:01.224Z,10.83
2022-10-16T05:42:01.213Z,10.56
2022-10-16T05:43:01.212Z,10.83
2022-10-16T05:44:01.221Z,10.67
2022-10-16T05:45:01.219Z,11
2022-10-16T05:46:01.222Z,10.83
2022-10-16T05:47:01.215Z,10.67
2022-10-16T05:48:01.234Z,10.83
2022-10-16T05:49:01.219Z,11
2022-10-16T05:50:01.229Z,10.83
2022-10-16T05:51:01.226Z,11
2022-10-16T05:52:01.247Z,10.83
2022-10-16T05:53:01.221Z,10.83
2022-10-16T05:54:01.213Z,10.83
2022-10-16T05:55:01.224Z,10.67
2022-10-16T05:56:01.220Z,10.56
2022-10-16T05:57:01.228Z,10.83
2022-10-16T05:58:01.219Z,10.83
2022-10-16T05:59:01.228Z,10.56
2022-10-16T06:00:01.220Z,10.83
2022-10-16T06:01:01.257Z,11
2022-10-16T06:02:01.219Z,11
2022-10-16T06:03:01.216Z,10.56
2022-10-16T06:04:01.287Z,11
2022-10-16T06:05:01.234Z,10.56
2022-10-16T06:06:01.213Z,11
2022-10-16T06:07:01.230Z,10.83
2022-10-16T06:08:01.246Z,10.83
2022-10-16T06:09:01.220Z,10.67
2022-10-16T06:10:01.228Z,10.67
2022-10-16T06:11:01.236Z,10.83
2022-10-16T06:12:01.223Z,10.83
2022-10-16T06:13:01.225Z,10.83
2022-10-16T06:14:01.226Z,10.67
2022-10-16T06:15:01.223Z,10.83
2022-10-16T06:16:01.218Z,11
2022-10-16T06:17:01.227Z,11
2022-10-16T06:18:01.221Z,11.11
2022-10-16T06:19:01.223Z,11.11
2022-10-16T06:20:01.212Z,11.11
2022-10-16T06:21:01.221Z,11.11
2022-10-16T06:22:01.219Z,11
2022-10-16T06:23:01.231Z,11.11
2022-10-16T06:24:01.248Z,11.11
2022-10-16T06:25:01.216Z,11.11
2022-10-16T06:26:01.221Z,11.11
2022-10-16T06:27:01.221Z,11.11
2022-10-16T06:28:01.228Z,11.28
2022-10-16T06:29:01.373Z,11.28
2022-10-16T06:30:01.225Z,11.28
2022-10-16T06:31:02.905Z,11.11
2022-10-16T06:32:01.230Z,11.11
2022-10-16T06:33:01.248Z,10.83
2022-10-16T06:34:01.240Z,11.11
2022-10-16T06:35:01.230Z,11.28
2022-10-16T06:36:01.226Z,11.44
2022-10-16T06:37:01.226Z,11
2022-10-16T06:38:01.224Z,11.28
2022-10-16T06:39:01.226Z,11.44
2022-10-16T06:40:01.252Z,11
2022-10-16T06:41:01.224Z,11.28
2022-10-16T06:42:01.240Z,11
2022-10-16T06:43:01.229Z,11
2022-10-16T06:44:01.223Z,11
2022-10-16T06:45:01.229Z,11.11
2022-10-16T06:46:01.224Z,11.11
2022-10-16T06:47:01.231Z,11.11
2022-10-16T06:48:01.229Z,11.11
2022-10-16T06:49:01.226Z,11
2022-10-16T06:50:01.220Z,11.44
2022-10-16T06:51:01.297Z,11.11
2022-10-16T06:52:01.234Z,11.44
2022-10-16T06:53:01.237Z,11.44
2022-10-16T06:54:03.125Z,11.11
2022-10-16T06:55:01.237Z,11.44
2022-10-16T06:56:01.253Z,11.44
2022-10-16T06:57:01.225Z,11.28
2022-10-16T06:58:01.231Z,11.11
2022-10-16T06:59:01.228Z,11.44
2022-10-16T07:00:01.230Z,11.11
2022-10-16T07:01:01.241Z,11
2022-10-16T07:02:01.230Z,11.11
2022-10-16T07:03:01.229Z,11.28
2022-10-16T07:04:01.228Z,11.28
2022-10-16T07:05:01.230Z,11.28
2022-10-16T07:06:01.238Z,11.44
2022-10-16T07:07:02.450Z,11.44
2022-10-16T07:08:01.231Z,11.44
2022-10-16T07:09:01.234Z,11.11
2022-10-16T07:10:01.226Z,11
2022-10-16T07:11:01.237Z,11.11
2022-10-16T07:12:01.252Z,11.11
2022-10-16T07:13:01.226Z,11.44
2022-10-16T07:14:01.235Z,11.44
2022-10-16T07:15:01.229Z,11.44
2022-10-16T07:16:01.223Z,11.44
2022-10-16T07:17:01.225Z,11.44
2022-10-16T07:18:01.231Z,11.44
2022-10-16T07:19:01.468Z,11.44
2022-10-16T07:20:01.224Z,11
2022-10-16T07:21:01.239Z,11.28
2022-10-16T07:22:01.235Z,11.61
2022-10-16T07:23:01.234Z,11.44
2022-10-16T07:24:01.225Z,11.28
2022-10-16T07:25:01.218Z,11.28
2022-10-16T07:26:01.225Z,11.44
2022-10-16T07:27:01.223Z,11.28
2022-10-16T07:28:01.254Z,11.28
2022-10-16T07:29:01.277Z,11.61
2022-10-16T07:30:02.649Z,11.44
2022-10-16T07:31:01.231Z,11.83
2022-10-16T07:32:01.225Z,11.44
2022-10-16T07:33:01.235Z,11.44
2022-10-16T07:34:01.248Z,11.44
2022-10-16T07:35:01.234Z,11.61
2022-10-16T07:36:01.233Z,11.44
2022-10-16T07:37:01.237Z,11.61
2022-10-16T07:38:01.232Z,11.44
2022-10-16T07:39:01.234Z,11.61
2022-10-16T07:40:01.229Z,11.44
2022-10-16T07:41:01.243Z,11.72
2022-10-16T07:42:01.230Z,11.61
2022-10-16T07:43:01.232Z,11.44
2022-10-16T07:44:01.423Z,11.72
2022-10-16T07:45:01.237Z,11.72
2022-10-16T07:46:02.511Z,11.83
2022-10-16T07:47:01.238Z,11.83
2022-10-16T07:48:01.238Z,11.83
2022-10-16T07:49:01.239Z,11.72
2022-10-16T07:50:01.222Z,11.83
2022-10-16T07:51:01.239Z,11.72
2022-10-16T07:52:01.228Z,11.83
2022-10-16T07:53:01.237Z,11.83
2022-10-16T07:54:01.239Z,11.61
2022-10-16T07:55:01.236Z,11.83
2022-10-16T07:56:01.246Z,11.83
2022-10-16T07:57:01.232Z,11.83
2022-10-16T07:58:01.228Z,12.11
2022-10-16T07:59:01.242Z,12.11
2022-10-16T08:00:01.269Z,12.28
2022-10-16T08:01:01.263Z,12.28
2022-10-16T08:02:01.235Z,12.28
2022-10-16T08:03:01.247Z,12.11
2022-10-16T08:04:01.347Z,12.28
2022-10-16T08:05:01.232Z,12.11
2022-10-16T08:06:01.236Z,12.11
2022-10-16T08:07:01.239Z,11.94
2022-10-16T08:08:01.234Z,11.94
2022-10-16T08:09:01.234Z,12.44
2022-10-16T08:10:01.232Z,12.28
2022-10-16T08:11:01.234Z,12.28
2022-10-16T08:12:02.369Z,12.5
2022-10-16T08:13:01.273Z,12.11
2022-10-16T08:14:01.232Z,12.28
2022-10-16T08:15:01.233Z,12.28
2022-10-16T08:16:01.264Z,12.11
2022-10-16T08:17:01.241Z,12.28
2022-10-16T08:18:01.228Z,12.28
2022-10-16T08:19:01.240Z,12.28
2022-10-16T08:20:01.239Z,12.28
2022-10-16T08:21:01.241Z,12.72
2022-10-16T08:22:01.291Z,12.72
2022-10-16T08:23:01.233Z,12.72
2022-10-16T08:24:01.248Z,12.56
2022-10-16T08:25:01.225Z,12.89
2022-10-16T08:26:01.243Z,13.06
2022-10-16T08:27:01.241Z,13.17
2022-10-16T08:28:01.232Z,13.17
2022-10-16T08:29:01.305Z,13.33
2022-10-16T08:30:01.242Z,13.33
2022-10-16T08:31:01.239Z,13.67
2022-10-16T08:32:01.264Z,13.5
2022-10-16T08:33:01.244Z,13.33
2022-10-16T08:34:01.247Z,13.5
2022-10-16T08:35:01.240Z,13.06
2022-10-16T08:36:01.234Z,13.06
2022-10-16T08:37:01.229Z,13.33
2022-10-16T08:38:01.235Z,13.5
2022-10-16T08:39:01.241Z,13.67
2022-10-16T08:40:01.232Z,13.5
2022-10-16T08:41:01.237Z,13.67
2022-10-16T08:42:01.236Z,13.67
2022-10-16T08:43:01.235Z,13.17
2022-10-16T08:44:01.236Z,13.67
2022-10-16T08:45:01.231Z,13.17
2022-10-16T08:46:01.238Z,13.33
2022-10-16T08:47:01.233Z,13.17
2022-10-16T08:48:01.265Z,13.67
2022-10-16T08:49:01.248Z,13.78
2022-10-16T08:50:01.241Z,13.67
2022-10-16T08:51:01.242Z,13.5
2022-10-16T08:52:01.246Z,13.67
2022-10-16T08:53:01.236Z,13.67
2022-10-16T08:54:01.242Z,13.78
2022-10-16T08:55:01.240Z,13.67
2022-10-16T08:56:01.246Z,13.78
2022-10-16T08:57:01.239Z,14.06
2022-10-16T08:58:01.238Z,13.78
2022-10-16T08:59:02.130Z,14.06
2022-10-16T09:00:01.255Z,14.06
2022-10-16T09:01:01.303Z,14.06
2022-10-16T09:02:01.232Z,13.78
2022-10-16T09:03:01.240Z,13.94
2022-10-16T09:04:01.274Z,13.94
2022-10-16T09:05:01.243Z,13.78
2022-10-16T09:06:01.240Z,14.06
2022-10-16T09:07:01.248Z,14.39
2022-10-16T09:09:01.253Z,14.28
2022-10-16T09:10:01.237Z,14.56
2022-10-16T09:11:01.239Z,14.28
2022-10-16T09:12:01.235Z,13.94
2022-10-16T09:13:01.238Z,14.39
2022-10-16T09:14:01.243Z,14.56
2022-10-16T09:15:01.242Z,14.67
2022-10-16T09:16:01.233Z,14.67
2022-10-16T09:17:01.281Z,14.67
2022-10-16T09:18:01.242Z,14.67
2022-10-16T09:19:01.235Z,14.56
2022-10-16T09:20:01.258Z,14.67
2022-10-16T09:21:01.236Z,15
2022-10-16T09:22:01.243Z,15
2022-10-16T09:23:01.244Z,14.67
2022-10-16T09:24:01.245Z,14.56
2022-10-16T09:25:01.239Z,14.28
2022-10-16T09:26:01.239Z,14.06
2022-10-16T09:27:01.254Z,14.06
2022-10-16T09:28:01.240Z,14.06
2022-10-16T09:29:01.341Z,14.39
2022-10-16T09:30:01.255Z,14.56
2022-10-16T09:31:01.251Z,14.39
2022-10-16T09:32:01.239Z,14.56
2022-10-16T09:33:01.235Z,14.67
2022-10-16T09:34:01.238Z,14.89
2022-10-16T09:35:01.249Z,14.89
2022-10-16T09:36:01.269Z,14.61
2022-10-16T09:37:01.246Z,14.28
2022-10-16T09:38:01.247Z,14.28
2022-10-16T09:39:01.241Z,14.78
2022-10-16T09:40:03.731Z,15.11
2022-10-16T09:41:04.273Z,14.89
2022-10-16T09:42:01.242Z,15.17
2022-10-16T09:43:01.243Z,14.78
2022-10-16T09:44:01.239Z,15.17
2022-10-16T09:45:01.255Z,15.06
2022-10-16T09:46:01.249Z,15.17
2022-10-16T09:47:01.248Z,15.28
2022-10-16T09:48:01.397Z,15.44
2022-10-16T09:49:01.252Z,15.17
2022-10-16T09:50:01.250Z,15.61
2022-10-16T09:51:01.258Z,15.44
2022-10-16T09:52:01.267Z,15.17
2022-10-16T09:53:01.255Z,15.44
2022-10-16T09:54:01.243Z,15.28
2022-10-16T09:55:01.246Z,15.17
2022-10-16T09:56:01.243Z,15.06
2022-10-16T09:57:01.250Z,15.17
2022-10-16T09:58:01.252Z,15.28
2022-10-16T09:59:01.249Z,15.17
2022-10-16T10:00:01.250Z,15.06
2022-10-16T10:01:01.256Z,15.44
2022-10-16T10:02:01.238Z,15.61
2022-10-16T10:03:01.269Z,15.89
2022-10-16T10:04:01.246Z,16.06
2022-10-16T10:05:01.233Z,15.61
2022-10-16T10:06:02.002Z,16.06
2022-10-16T10:07:01.254Z,15.89
2022-10-16T10:08:01.277Z,14.78
2022-10-16T10:09:01.243Z,13.83
2022-10-16T10:10:01.234Z,13.83
2022-10-16T10:11:01.253Z,13.83
2022-10-16T10:13:01.260Z,14.28
2022-10-16T10:14:01.248Z,14.11
2022-10-16T10:15:01.241Z,14.44
2022-10-16T10:16:01.244Z,13.56
2022-10-16T10:17:01.251Z,13.56
2022-10-16T10:18:01.240Z,13.39
2022-10-16T10:19:01.252Z,14
2022-10-16T10:20:01.254Z,14.28
2022-10-16T10:21:01.397Z,14.28
2022-10-16T10:22:01.246Z,14.28
2022-10-16T10:23:01.264Z,14.11
2022-10-16T10:24:01.274Z,14.11
2022-10-16T10:25:01.250Z,14.61
2022-10-16T10:26:01.250Z,14.89
2022-10-16T10:27:01.242Z,14.44
2022-10-16T10:28:01.243Z,14.78
2022-10-16T10:29:01.307Z,14.28
2022-10-16T10:30:01.247Z,14.61
2022-10-16T10:31:01.245Z,14.44
2022-10-16T10:32:01.241Z,15.17
2022-10-16T10:33:01.253Z,15.17
2022-10-16T10:34:01.255Z,14.61
2022-10-16T10:35:01.253Z,14.28
2022-10-16T10:36:01.257Z,14.61
2022-10-16T10:37:01.242Z,14.61
2022-10-16T10:38:01.253Z,15.06
2022-10-16T10:39:01.248Z,15.61
2022-10-16T10:40:01.265Z,15.61
2022-10-16T10:41:01.256Z,16.06
2022-10-16T10:42:01.249Z,16.22
2022-10-16T10:43:01.261Z,16.22
2022-10-16T10:44:01.252Z,16.22
2022-10-16T10:45:01.244Z,15.44
2022-10-16T10:46:01.245Z,15.89
2022-10-16T10:47:01.248Z,15.89
2022-10-16T10:48:01.251Z,15.61
2022-10-16T10:49:01.257Z,15.61
2022-10-16T10:50:01.258Z,15.06
2022-10-16T10:51:01.245Z,15.44
2022-10-16T10:52:01.243Z,15.17
2022-10-16T10:53:01.249Z,15.06
2022-10-16T10:54:01.253Z,15.28
2022-10-16T10:55:01.257Z,15.28
2022-10-16T10:56:01.289Z,15.17
2022-10-16T10:57:01.257Z,15.17
2022-10-16T10:58:01.253Z,15.28
2022-10-16T10:59:01.251Z,15.06
2022-10-16T11:00:01.242Z,14.78
2022-10-16T11:01:01.256Z,15.28
2022-10-16T11:02:01.318Z,15.61
2022-10-16T11:03:01.255Z,15.78
2022-10-16T11:04:01.261Z,15.17
2022-10-16T11:05:01.253Z,15.61
2022-10-16T11:06:01.242Z,16.56
2022-10-16T11:07:01.253Z,15.89
2022-10-16T11:08:01.251Z,16.06
2022-10-16T11:09:01.452Z,15.78
2022-10-16T11:10:01.253Z,15.78
2022-10-16T11:11:01.268Z,15.89
2022-10-16T11:12:01.278Z,15.61
2022-10-16T11:13:01.254Z,15.61
2022-10-16T11:14:01.255Z,15.89
2022-10-16T11:15:01.248Z,16.06
2022-10-16T11:16:01.278Z,15.89
2022-10-16T11:17:01.272Z,17
2022-10-16T11:18:01.251Z,17.5
2022-10-16T11:19:01.255Z,17.33
2022-10-16T11:20:01.255Z,17.17
2022-10-16T11:21:01.251Z,16.56
2022-10-16T11:22:01.262Z,16.06
2022-10-16T11:23:01.246Z,15.61
2022-10-16T11:24:01.318Z,16.39
2022-10-16T11:25:01.265Z,16.22
2022-10-16T11:26:01.262Z,16.72
2022-10-16T11:27:01.258Z,16.56
2022-10-16T11:28:01.285Z,16.56
2022-10-16T11:29:01.318Z,16.89
2022-10-16T11:30:01.252Z,16.89
2022-10-16T11:31:01.254Z,16.72
2022-10-16T11:32:01.248Z,16.56
2022-10-16T11:33:01.251Z,16.56
2022-10-16T11:35:01.253Z,16.89
2022-10-16T11:36:01.246Z,17
2022-10-16T11:37:01.261Z,17.67
2022-10-16T11:38:01.260Z,18.17
2022-10-16T11:39:01.259Z,17.94
2022-10-16T11:40:01.258Z,17.94
2022-10-16T11:41:01.255Z,18.61
2022-10-16T11:42:01.243Z,18.94
2022-10-16T11:43:01.310Z,18.44
2022-10-16T11:44:01.391Z,18.17
2022-10-16T11:45:01.248Z,17.67
2022-10-16T11:46:01.239Z,17.94
2022-10-16T11:47:24.669Z,18.17
2022-10-16T11:48:01.622Z,17.94
2022-10-16T11:49:01.245Z,18.44
2022-10-16T11:50:01.254Z,18.61
2022-10-16T11:51:01.252Z,18.61
2022-10-16T11:52:01.301Z,18.44
2022-10-16T11:53:01.269Z,18.44
2022-10-16T11:54:01.255Z,18.94
2022-10-16T11:55:01.258Z,18.94
2022-10-16T11:56:01.257Z,17.94
2022-10-16T11:57:01.270Z,18.44
2022-10-16T11:58:01.259Z,18.78
2022-10-16T11:59:01.244Z,18.28
2022-10-16T12:00:01.280Z,18.44
2022-10-16T12:01:01.256Z,18.61
2022-10-16T12:02:01.259Z,18.94
2022-10-16T12:03:01.254Z,19.28
2022-10-16T12:04:01.300Z,19.44
2022-10-16T12:05:01.260Z,19.56
2022-10-16T12:06:01.253Z,19.56
2022-10-16T12:07:01.254Z,19.28
2022-10-16T12:08:01.258Z,18.44
2022-10-16T12:09:01.258Z,18.94
2022-10-16T12:10:01.250Z,18.44
2022-10-16T12:11:01.247Z,17.61
2022-10-16T12:12:01.259Z,17.94
2022-10-16T12:13:01.255Z,18
2022-10-16T12:14:01.257Z,17.39
2022-10-16T12:15:16.160Z,17.22
2022-10-16T12:16:01.282Z,17.67
2022-10-16T12:17:01.255Z,17.83
2022-10-16T12:18:01.258Z,17.67
2022-10-16T12:19:01.258Z,17.67
2022-10-16T12:20:01.259Z,17.67
2022-10-16T12:21:01.251Z,17.67
2022-10-16T12:22:01.259Z,17.39
2022-10-16T12:23:01.256Z,18.33
2022-10-16T12:24:01.255Z,18.5
2022-10-16T12:25:01.269Z,18.67
2022-10-16T12:26:01.248Z,18
2022-10-16T12:27:01.259Z,17.39
2022-10-16T12:28:01.266Z,17.83
2022-10-16T12:29:01.366Z,18.17
2022-10-16T12:30:01.256Z,18.33
2022-10-16T12:31:01.265Z,18.67
2022-10-16T12:32:01.289Z,19.44
2022-10-16T12:33:01.253Z,18.67
2022-10-16T12:34:01.268Z,18.5
2022-10-16T12:35:01.266Z,18.67
2022-10-16T12:36:01.260Z,19.61
2022-10-16T12:37:01.247Z,19.83
2022-10-16T12:38:01.268Z,19.94
2022-10-16T12:39:01.259Z,20.39
2022-10-16T12:40:01.255Z,20.72
2022-10-16T12:41:01.260Z,20.83
2022-10-16T12:42:01.264Z,21.06
2022-10-16T12:43:01.260Z,21.06
2022-10-16T12:44:01.259Z,21.06
2022-10-16T12:45:01.264Z,21.06
2022-10-16T12:46:01.259Z,21.22
2022-10-16T12:47:01.262Z,21.56
2022-10-16T12:48:01.274Z,20.72
2022-10-16T12:49:06.796Z,21.06
2022-10-16T12:50:04.301Z,21.06
2022-10-16T12:51:01.262Z,21.39
2022-10-16T12:52:01.257Z,21.06
2022-10-16T12:53:01.264Z,20.83
2022-10-16T12:54:01.263Z,21.39
2022-10-16T12:55:01.266Z,21.22
2022-10-16T12:56:01.259Z,20.56
2022-10-16T12:57:01.262Z,20.39
2022-10-16T12:58:01.269Z,20.11
2022-10-16T12:59:01.253Z,20.11
2022-10-16T13:00:01.266Z,20.56
2022-10-16T13:01:01.283Z,21.06
2022-10-16T13:02:01.275Z,21.56
2022-10-16T13:03:01.259Z,21.06
2022-10-16T13:04:01.294Z,20.72
2022-10-16T13:05:01.271Z,21.39
2022-10-16T13:06:01.265Z,21.06
2022-10-16T13:07:01.265Z,21.56
2022-10-16T13:08:01.251Z,20.56
2022-10-16T13:09:01.257Z,20.72
2022-10-16T13:10:01.263Z,20.83
2022-10-16T13:11:01.262Z,21.06